TAF Flughafenprognosen

Nürnberg TAF, ausgegeben Fr 17.09. 07:00

TAF EDDN 170500Z 1706/1806 VRB03KT 9999 SCT045 BECMG 1708/1710 30006KT BECMG 1716/1718 VRB03KT TEMPO 1800/1806 2000 BCFG
GültigkeitVonBisWind in Beaufort
(Knoten)
Wolken
(Meter über Grund)
Sichtweite
(Meter)
Wettererscheinung
Grundvorhersage Fr 17.09. 08:00 Sa 18.09. 08:00 Uml 2 (3) Wolkig (1400) >= 10000  
Übergang zu Fr 17.09. 10:00 Fr 17.09. 12:00 WNW 2 (6)      
Übergang zu Fr 17.09. 18:00 Fr 17.09. 20:00 Uml 2 (3)      
Vorübergehend Sa 18.09. 02:00 Sa 18.09. 08:00     2000 Nebel-Bänke

 

Hof TAF, ausgegeben Fr 17.09. 07:46

TAF EDQM 170546Z 1706/1715 29006KT 9999 SCT035
GültigkeitVonBisWind in Beaufort
(Knoten)
Wolken
(Meter über Grund)
Sichtweite
(Meter)
Wettererscheinung
Grundvorhersage Fr 17.09. 08:00 Fr 17.09. 17:00 WNW 2 (6) Wolkig (1100) >= 10000  

 

Erfurt-Bindersleben TAF, ausgegeben Fr 17.09. 07:00

TAF EDDE 170500Z 1706/1806 29011KT 9999 SCT030 BECMG 1716/1718 27006KT
GültigkeitVonBisWind in Beaufort
(Knoten)
Wolken
(Meter über Grund)
Sichtweite
(Meter)
Wettererscheinung
Grundvorhersage Fr 17.09. 08:00 Sa 18.09. 08:00 WNW 4 (11) Wolkig (910) >= 10000  
Übergang zu Fr 17.09. 18:00 Fr 17.09. 20:00 W 2 (6)      

 

Augsburg TAF, ausgegeben Fr 17.09. 07:48

TAF EDMA 170548Z 1706/1715 VRB03KT 9999 FEW035
GültigkeitVonBisWind in Beaufort
(Knoten)
Wolken
(Meter über Grund)
Sichtweite
(Meter)
Wettererscheinung
Grundvorhersage Fr 17.09. 08:00 Fr 17.09. 17:00 Uml 2 (3) Leicht bewölkt (1100) >= 10000  

 

Frankfurt TAF, ausgegeben Fr 17.09. 07:00

TAF EDDF 170500Z 1706/1812 VRB03KT CAVOK BECMG 1709/1711 29005KT BECMG 1716/1719 VRB03KT PROB30 TEMPO 1803/1806 2000 BCFG BECMG 1808/1810 06005KT
GültigkeitVonBisWind in Beaufort
(Knoten)
Wolken
(Meter über Grund)
Sichtweite
(Meter)
Wettererscheinung
Grundvorhersage Fr 17.09. 08:00 Sa 18.09. 14:00 Uml 2 (3) Nicht signifikant >= 10000  
Übergang zu Fr 17.09. 11:00 Fr 17.09. 13:00 WNW 2 (5)      
Übergang zu Fr 17.09. 18:00 Fr 17.09. 21:00 Uml 2 (3)      
Vorübergehend
(Wahrscheinlichkeit 30 %)
Sa 18.09. 05:00 Sa 18.09. 08:00     2000 Nebel-Bänke
Übergang zu Sa 18.09. 10:00 Sa 18.09. 12:00 ONO 2 (5)      

 

Stuttgart TAF, ausgegeben Fr 17.09. 07:00

TAF EDDS 170500Z 1706/1806 VRB03KT 9999 BKN045 TEMPO 1801/1806 1200 BCFG
GültigkeitVonBisWind in Beaufort
(Knoten)
Wolken
(Meter über Grund)
Sichtweite
(Meter)
Wettererscheinung
Grundvorhersage Fr 17.09. 08:00 Sa 18.09. 08:00 Uml 2 (3) Stark bewölkt (1400) >= 10000  
Vorübergehend Sa 18.09. 03:00 Sa 18.09. 08:00     1200 Nebel-Bänke

 

München TAF, ausgegeben Fr 17.09. 07:00

TAF EDDM 170500Z 1706/1812 29005KT 9999 SCT040 BECMG 1716/1718 VRB03KT BECMG 1722/1724 2000 BCFG TEMPO 1801/1806 0400 FG VV001 BECMG 1807/1809 9999
GültigkeitVonBisWind in Beaufort
(Knoten)
Wolken
(Meter über Grund)
Sichtweite
(Meter)
Wettererscheinung
Grundvorhersage Fr 17.09. 08:00 Sa 18.09. 14:00 WNW 2 (5) Wolkig (1200) >= 10000  
Übergang zu Fr 17.09. 18:00 Fr 17.09. 20:00 Uml 2 (3)      
Übergang zu Sa 18.09. 00:00 Sa 18.09. 02:00     2000 Nebel-Bänke
Vorübergehend Sa 18.09. 03:00 Sa 18.09. 08:00     400 Nebel
Übergang zu Sa 18.09. 09:00 Sa 18.09. 11:00